createdAt,value
2018-12-18T00:00:41.675Z,99.90
2018-12-18T00:03:11.039Z,99.90
2018-12-18T00:05:40.217Z,99.90
2018-12-18T00:08:09.404Z,99.90
2018-12-18T00:10:43.952Z,99.90
2018-12-18T00:13:13.152Z,99.90
2018-12-18T00:15:42.395Z,99.90
2018-12-18T00:18:11.561Z,99.90
2018-12-18T00:20:40.707Z,99.90
2018-12-18T00:23:09.882Z,99.90
2018-12-18T00:25:39.126Z,99.90
2018-12-18T00:28:08.312Z,99.90
2018-12-18T00:30:37.662Z,99.90
2018-12-18T00:33:06.836Z,99.90
2018-12-18T00:35:36.079Z,99.90
2018-12-18T00:38:05.290Z,99.90
2018-12-18T00:40:34.562Z,99.90
2018-12-18T00:43:03.910Z,99.90
2018-12-18T00:45:33.149Z,99.90
2018-12-18T00:48:02.311Z,99.90
2018-12-18T00:50:31.458Z,99.90
2018-12-18T00:53:01.214Z,99.90
2018-12-18T00:55:30.366Z,99.90
2018-12-18T00:57:59.530Z,99.90
2018-12-18T01:00:28.678Z,99.90
2018-12-18T01:02:57.882Z,99.90
2018-12-18T01:05:27.035Z,99.90
2018-12-18T01:07:56.206Z,99.90
2018-12-18T01:10:25.366Z,99.90
2018-12-18T01:12:54.639Z,99.90
2018-12-18T01:15:23.793Z,99.90
2018-12-18T01:17:59.343Z,99.90
2018-12-18T01:20:28.496Z,99.90
2018-12-18T01:22:57.666Z,99.90
2018-12-18T01:25:26.935Z,99.90
2018-12-18T01:27:56.126Z,99.90
2018-12-18T01:30:25.302Z,99.90
2018-12-18T01:32:54.650Z,99.90
2018-12-18T01:35:23.802Z,99.90
2018-12-18T01:37:52.962Z,99.90
2018-12-18T01:40:22.197Z,99.90
2018-12-18T01:42:51.390Z,99.90
2018-12-18T01:45:20.630Z,99.90
2018-12-18T01:47:49.808Z,99.90
2018-12-18T01:50:18.958Z,99.90
2018-12-18T01:52:48.120Z,99.90
2018-12-18T01:55:17.360Z,99.90
2018-12-18T01:57:46.529Z,99.90
2018-12-18T02:00:15.786Z,99.90
2018-12-18T02:02:44.962Z,99.90
2018-12-18T02:05:14.131Z,99.90
2018-12-18T02:07:43.282Z,99.90
2018-12-18T02:10:12.575Z,99.90
2018-12-18T02:12:41.718Z,99.90
2018-12-18T02:15:10.910Z,99.90
2018-12-18T02:17:40.143Z,99.90
2018-12-18T02:20:09.690Z,99.90
2018-12-18T02:22:38.939Z,99.90
2018-12-18T02:25:08.338Z,99.90
2018-12-18T02:27:37.485Z,99.90
2018-12-18T02:30:07.585Z,99.90
2018-12-18T02:32:36.734Z,99.90
2018-12-18T02:35:06.610Z,99.90
2018-12-18T02:37:42.547Z,99.90
2018-12-18T02:40:11.716Z,99.90
2018-12-18T02:42:40.959Z,99.90
2018-12-18T02:45:10.455Z,99.90
2018-12-18T02:47:39.602Z,99.90
2018-12-18T02:50:09.058Z,99.90
2018-12-18T02:52:39.189Z,99.90
2018-12-18T02:55:08.463Z,99.90
2018-12-18T02:57:37.712Z,99.90
2018-12-18T03:00:08.217Z,99.90
2018-12-18T03:02:37.366Z,99.90
2018-12-18T03:05:06.999Z,99.90
2018-12-18T03:07:36.246Z,99.90
2018-12-18T03:10:06.142Z,99.90
2018-12-18T03:12:35.284Z,99.90
2018-12-18T03:15:04.748Z,99.90
2018-12-18T03:17:34.023Z,99.90
2018-12-18T03:20:04.233Z,99.90
2018-12-18T03:22:33.374Z,99.90
2018-12-18T03:25:02.568Z,99.90
2018-12-18T03:27:31.707Z,99.90
2018-12-18T03:30:00.884Z,99.90
2018-12-18T03:32:37.403Z,99.90
2018-12-18T03:35:06.702Z,99.90
2018-12-18T03:37:35.862Z,99.90
2018-12-18T03:40:06.671Z,99.90
2018-12-18T03:42:35.822Z,99.90
2018-12-18T03:45:05.795Z,99.90
2018-12-18T03:47:34.954Z,99.90
2018-12-18T03:50:04.458Z,99.90
2018-12-18T03:52:33.702Z,99.90
2018-12-18T03:55:02.871Z,99.90
2018-12-18T03:57:32.023Z,99.90
2018-12-18T04:00:01.198Z,99.90
2018-12-18T04:02:30.341Z,99.90
2018-12-18T04:05:05.820Z,99.90
2018-12-18T04:07:34.978Z,99.90
2018-12-18T04:10:04.790Z,99.90
2018-12-18T04:12:33.952Z,99.90
2018-12-18T04:15:03.335Z,99.90
2018-12-18T04:17:32.525Z,99.90
2018-12-18T04:20:01.763Z,99.90
2018-12-18T04:22:31.010Z,99.90
2018-12-18T04:25:00.202Z,99.90
2018-12-18T04:27:29.814Z,99.90
2018-12-18T04:29:59.002Z,99.90
2018-12-18T04:32:28.159Z,99.90
2018-12-18T04:34:57.350Z,99.90
2018-12-18T04:37:26.507Z,99.90
2018-12-18T04:39:55.675Z,99.90
2018-12-18T04:42:24.831Z,99.90
2018-12-18T04:44:53.997Z,99.90
2018-12-18T04:47:23.155Z,99.90
2018-12-18T04:49:52.326Z,99.90
2018-12-18T04:52:21.503Z,99.90
2018-12-18T04:54:50.700Z,99.90
2018-12-18T04:57:19.958Z,99.90
2018-12-18T04:59:49.140Z,99.90
2018-12-18T05:02:18.302Z,99.90
2018-12-18T05:04:50.489Z,99.90
2018-12-18T05:07:18.670Z,99.90
2018-12-18T05:09:47.842Z,99.90
2018-12-18T05:12:17.006Z,99.90
2018-12-18T05:14:46.203Z,99.90
2018-12-18T05:17:15.447Z,99.90
2018-12-18T05:19:44.623Z,99.90
2018-12-18T05:22:13.793Z,99.90
2018-12-18T05:24:42.968Z,99.90
2018-12-18T05:27:12.217Z,99.90
2018-12-18T05:29:41.465Z,99.90
2018-12-18T05:32:10.775Z,99.90
2018-12-18T05:34:39.960Z,99.90
2018-12-18T05:37:09.123Z,99.90
2018-12-18T05:39:38.299Z,99.90
2018-12-18T05:42:07.449Z,99.90
2018-12-18T05:44:36.618Z,99.90
2018-12-18T05:47:05.798Z,99.90
2018-12-18T05:49:34.998Z,99.90
2018-12-18T05:52:04.155Z,99.90
2018-12-18T05:54:33.302Z,99.90
2018-12-18T05:57:02.482Z,99.90
2018-12-18T05:59:31.727Z,99.90
2018-12-18T06:02:00.896Z,99.90
2018-12-18T06:04:30.043Z,99.90
2018-12-18T06:06:59.214Z,99.90
2018-12-18T06:09:28.357Z,99.90
2018-12-18T06:11:57.658Z,99.90
2018-12-18T06:14:26.918Z,99.90
2018-12-18T06:16:56.086Z,99.90
2018-12-18T06:19:25.278Z,99.90
2018-12-18T06:21:54.446Z,99.90
2018-12-18T06:24:23.662Z,99.90
2018-12-18T06:26:52.858Z,99.90
2018-12-18T06:29:22.017Z,99.90
2018-12-18T06:31:51.254Z,99.90
2018-12-18T06:34:20.402Z,99.90
2018-12-18T06:36:49.578Z,99.90
2018-12-18T06:39:18.801Z,99.90
2018-12-18T06:41:47.966Z,99.90
2018-12-18T06:44:17.106Z,99.90
2018-12-18T06:46:46.278Z,99.90
2018-12-18T06:49:15.492Z,99.90
2018-12-18T06:51:44.818Z,99.90
2018-12-18T06:54:14.062Z,99.90
2018-12-18T06:56:43.240Z,99.90
2018-12-18T06:59:12.406Z,99.90
2018-12-18T07:01:41.583Z,99.90
2018-12-18T07:04:10.735Z,99.90
2018-12-18T07:06:39.906Z,99.90
2018-12-18T07:09:10.155Z,99.90
2018-12-18T07:11:39.335Z,99.90
2018-12-18T07:14:08.515Z,99.90
2018-12-18T07:16:37.704Z,99.90
2018-12-18T07:19:06.969Z,99.90
2018-12-18T07:21:36.147Z,99.90
2018-12-18T07:24:05.399Z,99.90
2018-12-18T07:26:34.582Z,99.90
2018-12-18T07:29:03.776Z,99.90
2018-12-18T07:31:33.078Z,99.90
2018-12-18T07:34:02.305Z,99.90
2018-12-18T07:36:31.554Z,99.90
2018-12-18T07:39:00.838Z,99.90
2018-12-18T07:41:30.011Z,99.90
2018-12-18T07:43:59.170Z,99.90
2018-12-18T07:46:28.350Z,99.90
2018-12-18T07:48:57.506Z,99.90
2018-12-18T07:51:26.674Z,99.90
2018-12-18T07:53:55.835Z,99.90
2018-12-18T07:56:25.005Z,99.90
2018-12-18T07:58:54.154Z,99.90
2018-12-18T08:01:23.329Z,99.90
2018-12-18T08:03:52.477Z,99.90
2018-12-18T08:06:21.666Z,99.90
2018-12-18T08:08:50.823Z,99.90
2018-12-18T08:11:19.998Z,99.90
2018-12-18T08:13:49.246Z,99.90
2018-12-18T08:16:18.421Z,99.90
2018-12-18T08:18:47.670Z,99.90
2018-12-18T08:21:16.863Z,99.90
2018-12-18T08:23:46.030Z,99.90
2018-12-18T08:26:18.088Z,99.90
2018-12-18T08:28:47.265Z,99.90
2018-12-18T08:31:16.438Z,99.90
2018-12-18T08:33:45.593Z,99.90
2018-12-18T08:36:14.760Z,99.90
2018-12-18T08:38:43.988Z,99.90
2018-12-18T08:41:13.323Z,99.90
2018-12-18T08:43:42.486Z,99.90
2018-12-18T08:46:11.659Z,99.90
2018-12-18T08:48:40.867Z,99.90
2018-12-18T08:51:10.048Z,99.90
2018-12-18T08:53:39.202Z,99.90
2018-12-18T08:56:08.462Z,99.90
2018-12-18T08:58:37.622Z,99.90
2018-12-18T09:01:06.782Z,99.90
2018-12-18T09:03:36.415Z,99.90
2018-12-18T09:06:05.602Z,99.90
2018-12-18T09:08:34.778Z,99.90
2018-12-18T09:11:04.026Z,99.90
2018-12-18T09:13:33.220Z,99.90
2018-12-18T09:16:02.370Z,99.90
2018-12-18T09:18:31.546Z,99.90
2018-12-18T09:21:00.786Z,99.90
2018-12-18T09:23:29.954Z,99.90
2018-12-18T09:25:59.118Z,99.90
2018-12-18T09:28:28.291Z,99.90
2018-12-18T09:30:57.470Z,99.90
2018-12-18T09:33:26.640Z,99.90
2018-12-18T09:35:55.788Z,99.90
2018-12-18T09:38:30.474Z,99.90
2018-12-18T09:41:04.950Z,99.90
2018-12-18T09:43:39.707Z,99.90
2018-12-18T09:46:08.862Z,99.90
2018-12-18T09:48:38.084Z,99.90
2018-12-18T09:51:07.252Z,99.90
2018-12-18T09:53:36.426Z,99.90
2018-12-18T09:56:05.666Z,99.90
2018-12-18T09:58:34.846Z,99.90
2018-12-18T10:01:04.095Z,99.90
2018-12-18T10:03:33.756Z,99.90
2018-12-18T10:06:03.318Z,99.90
2018-12-18T10:08:32.503Z,99.90
2018-12-18T10:11:01.977Z,99.90
2018-12-18T10:13:31.179Z,99.90
2018-12-18T10:16:00.346Z,99.90
2018-12-18T10:18:29.519Z,99.90
2018-12-18T10:20:58.683Z,99.90
2018-12-18T10:23:27.853Z,99.90
2018-12-18T10:25:57.002Z,99.90
2018-12-18T10:28:26.170Z,99.90
2018-12-18T10:30:55.319Z,99.90
2018-12-18T10:33:24.482Z,99.90
2018-12-18T10:35:53.638Z,99.90
2018-12-18T10:38:22.819Z,99.90
2018-12-18T10:40:51.971Z,99.90
2018-12-18T10:43:21.154Z,99.90
2018-12-18T10:45:50.347Z,99.90
2018-12-18T10:48:19.509Z,99.90
2018-12-18T10:50:49.815Z,99.90
2018-12-18T10:53:20.600Z,99.90
2018-12-18T10:55:49.754Z,99.90
2018-12-18T10:58:23.985Z,99.90
2018-12-18T11:00:55.435Z,99.90
2018-12-18T11:03:24.638Z,99.90
2018-12-18T11:05:53.786Z,99.90
2018-12-18T11:08:23.058Z,99.90
2018-12-18T11:10:52.213Z,99.90
2018-12-18T11:13:21.406Z,99.90
2018-12-18T11:15:50.599Z,99.90
2018-12-18T11:18:19.773Z,99.90
2018-12-18T11:20:48.927Z,99.90
2018-12-18T11:23:19.758Z,99.90
2018-12-18T11:25:49.188Z,99.90
2018-12-18T11:28:24.967Z,99.90
2018-12-18T11:31:57.495Z,99.90
2018-12-18T11:34:26.667Z,99.90
2018-12-18T11:36:55.817Z,99.90
2018-12-18T11:39:24.982Z,99.90
2018-12-18T11:41:54.154Z,99.90
2018-12-18T11:44:23.352Z,99.90
2018-12-18T11:46:52.575Z,99.90
2018-12-18T11:49:21.762Z,99.90
2018-12-18T11:51:50.928Z,99.90
2018-12-18T11:54:20.102Z,99.90
2018-12-18T11:56:49.266Z,99.90
2018-12-18T11:59:18.629Z,99.90
2018-12-18T12:01:47.790Z,99.60
2018-12-18T12:04:16.971Z,97.50
2018-12-18T12:06:46.134Z,94.50
2018-12-18T12:09:15.410Z,95.80
2018-12-18T12:11:44.663Z,95.50
2018-12-18T12:14:13.870Z,95.50
2018-12-18T12:16:43.042Z,97.20
2018-12-18T12:19:12.218Z,96.00
2018-12-18T12:21:41.374Z,99.60
2018-12-18T12:24:10.562Z,99.90
2018-12-18T12:26:42.099Z,99.90
2018-12-18T12:29:11.273Z,99.90
2018-12-18T12:31:40.444Z,99.90
2018-12-18T12:34:09.715Z,99.90
2018-12-18T12:36:39.058Z,99.90
2018-12-18T12:39:09.534Z,99.90
2018-12-18T12:41:38.694Z,99.70
2018-12-18T12:44:07.895Z,97.10
2018-12-18T12:46:37.069Z,96.10
2018-12-18T12:49:10.303Z,97.60
2018-12-18T12:51:39.702Z,97.20
2018-12-18T12:54:08.971Z,96.30
2018-12-18T12:56:38.158Z,99.90
2018-12-18T12:59:07.332Z,99.90
2018-12-18T13:01:41.913Z,99.90
2018-12-18T13:04:07.690Z,99.90
2018-12-18T13:06:36.850Z,99.90
2018-12-18T13:09:09.055Z,99.90
2018-12-18T13:11:38.206Z,99.90
2018-12-18T13:14:07.393Z,99.90
2018-12-18T13:16:36.540Z,99.90
2018-12-18T13:19:05.719Z,99.90
2018-12-18T13:21:34.869Z,99.90
2018-12-18T13:24:04.135Z,99.90
2018-12-18T13:26:33.288Z,99.90
2018-12-18T13:29:02.494Z,99.90
2018-12-18T13:31:31.650Z,99.90
2018-12-18T13:34:02.037Z,99.90
2018-12-18T13:36:31.302Z,99.90
2018-12-18T13:39:00.483Z,99.90
2018-12-18T13:41:29.637Z,99.90
2018-12-18T13:43:58.820Z,99.90
2018-12-18T13:46:27.970Z,99.90
2018-12-18T13:48:57.147Z,99.90
2018-12-18T13:51:26.300Z,99.90
2018-12-18T13:53:55.471Z,99.90
2018-12-18T13:56:24.626Z,99.90
2018-12-18T13:58:53.808Z,99.90
2018-12-18T14:01:23.204Z,99.90
2018-12-18T14:03:52.398Z,99.90
2018-12-18T14:06:21.555Z,99.90
2018-12-18T14:08:50.734Z,99.90
2018-12-18T14:11:19.910Z,99.90
2018-12-18T14:13:49.109Z,99.90
2018-12-18T14:16:21.281Z,99.90
2018-12-18T14:18:50.461Z,99.90
2018-12-18T14:21:19.631Z,99.90
2018-12-18T14:23:48.802Z,99.90
2018-12-18T14:26:18.013Z,99.90
2018-12-18T14:28:47.197Z,99.90
2018-12-18T14:31:16.346Z,99.90
2018-12-18T14:33:45.622Z,99.90
2018-12-18T14:36:14.810Z,99.90
2018-12-18T14:38:43.987Z,99.90
2018-12-18T14:41:13.235Z,99.90
2018-12-18T14:43:42.419Z,99.90
2018-12-18T14:46:11.568Z,99.90
2018-12-18T14:48:40.755Z,99.90
2018-12-18T14:51:09.943Z,99.90
2018-12-18T14:53:39.102Z,99.90
2018-12-18T14:56:08.390Z,99.90
2018-12-18T14:58:40.519Z,99.90
2018-12-18T15:01:09.762Z,99.90
2018-12-18T15:03:39.037Z,99.90
2018-12-18T15:06:08.231Z,99.90
2018-12-18T15:08:37.417Z,99.90
2018-12-18T15:11:06.663Z,99.90
2018-12-18T15:13:35.946Z,99.90
2018-12-18T15:16:05.253Z,99.90
2018-12-18T15:18:34.439Z,99.90
2018-12-18T15:21:03.698Z,99.90
2018-12-18T15:23:32.862Z,99.90
2018-12-18T15:26:02.164Z,99.90
2018-12-18T15:28:31.470Z,99.90
2018-12-18T15:31:00.658Z,99.90
2018-12-18T15:33:29.934Z,99.90
2018-12-18T15:35:59.426Z,99.90
2018-12-18T15:38:28.573Z,99.90
2018-12-18T15:40:57.735Z,99.90
2018-12-18T15:43:26.879Z,99.90
2018-12-18T15:45:56.125Z,99.90
2018-12-18T15:48:31.506Z,99.90
2018-12-18T15:51:00.675Z,99.90
2018-12-18T15:53:29.830Z,99.90
2018-12-18T15:55:59.142Z,99.90
2018-12-18T15:58:28.300Z,99.90
2018-12-18T16:00:57.535Z,99.90
2018-12-18T16:03:26.746Z,99.90
2018-12-18T16:05:56.064Z,99.90
2018-12-18T16:08:25.263Z,99.90
2018-12-18T16:10:54.550Z,99.90
2018-12-18T16:13:23.739Z,99.90
2018-12-18T16:15:52.914Z,99.90
2018-12-18T16:18:22.126Z,99.90
2018-12-18T16:20:51.478Z,99.90
2018-12-18T16:23:20.634Z,99.90
2018-12-18T16:25:49.806Z,99.90
2018-12-18T16:28:18.963Z,99.90
2018-12-18T16:30:48.135Z,99.90
2018-12-18T16:33:17.287Z,99.90
2018-12-18T16:35:46.541Z,99.90
2018-12-18T16:38:15.851Z,99.90
2018-12-18T16:40:45.134Z,99.90
2018-12-18T16:43:14.304Z,99.90
2018-12-18T16:45:43.511Z,99.90
2018-12-18T16:48:12.683Z,99.90
2018-12-18T16:50:41.964Z,99.90
2018-12-18T16:53:11.135Z,99.90
2018-12-18T16:55:40.308Z,99.90
2018-12-18T16:58:09.659Z,99.90
2018-12-18T17:00:39.518Z,99.90
2018-12-18T17:03:08.671Z,99.90
2018-12-18T17:05:37.842Z,99.90
2018-12-18T17:08:07.002Z,99.90
2018-12-18T17:10:36.199Z,99.90
2018-12-18T17:13:05.467Z,99.90
2018-12-18T17:15:34.695Z,99.90
2018-12-18T17:18:03.854Z,99.90
2018-12-18T17:20:33.030Z,99.90
2018-12-18T17:23:02.266Z,99.90
2018-12-18T17:25:31.591Z,99.90
2018-12-18T17:28:00.743Z,99.90
2018-12-18T17:30:30.114Z,99.90
2018-12-18T17:32:59.277Z,99.90
2018-12-18T17:35:28.462Z,99.90
2018-12-18T17:37:57.762Z,99.90
2018-12-18T17:40:27.129Z,99.90
2018-12-18T17:42:56.374Z,99.90
2018-12-18T17:45:25.599Z,99.90
2018-12-18T17:47:54.989Z,99.90
2018-12-18T17:50:24.213Z,99.90
2018-12-18T17:52:53.371Z,99.90
2018-12-18T17:55:22.549Z,99.90
2018-12-18T17:57:51.753Z,99.90
2018-12-18T18:00:20.922Z,99.90
2018-12-18T18:02:50.091Z,99.90
2018-12-18T18:05:19.266Z,99.90
2018-12-18T18:07:48.418Z,99.90
2018-12-18T18:10:17.843Z,99.90
2018-12-18T18:12:47.022Z,99.90
2018-12-18T18:15:16.410Z,99.90
2018-12-18T18:17:45.566Z,99.90
2018-12-18T18:20:14.835Z,99.90
2018-12-18T18:22:44.086Z,99.90
2018-12-18T18:25:13.263Z,99.90
2018-12-18T18:27:42.521Z,99.90
2018-12-18T18:30:11.778Z,99.90
2018-12-18T18:32:41.030Z,99.90
2018-12-18T18:35:10.186Z,99.90
2018-12-18T18:37:39.370Z,99.90
2018-12-18T18:40:09.874Z,99.90
2018-12-18T18:42:39.047Z,99.90
2018-12-18T18:45:08.490Z,99.90
2018-12-18T18:47:37.666Z,99.90
2018-12-18T18:50:09.242Z,99.90
2018-12-18T18:52:38.466Z,99.90
2018-12-18T18:55:07.694Z,99.90
2018-12-18T18:57:36.879Z,99.90
2018-12-18T19:00:08.179Z,99.90
2018-12-18T19:02:37.343Z,99.90
2018-12-18T19:05:09.795Z,99.90
2018-12-18T19:07:39.147Z,99.90
2018-12-18T19:10:09.027Z,99.90
2018-12-18T19:12:38.203Z,99.90
2018-12-18T19:15:07.586Z,99.90
2018-12-18T19:17:36.770Z,99.90
2018-12-18T19:20:06.776Z,99.90
2018-12-18T19:22:35.979Z,99.90
2018-12-18T19:25:05.748Z,99.90
2018-12-18T19:27:34.925Z,99.90
2018-12-18T19:30:04.266Z,99.90
2018-12-18T19:32:33.476Z,99.90
2018-12-18T19:35:02.650Z,99.90
2018-12-18T19:37:31.968Z,99.90
2018-12-18T19:40:01.201Z,99.90
2018-12-18T19:42:30.643Z,99.90
2018-12-18T19:44:59.970Z,99.90
2018-12-18T19:47:29.328Z,99.90
2018-12-18T19:49:58.700Z,99.90
2018-12-18T19:52:28.126Z,99.90
2018-12-18T19:54:57.324Z,99.90
2018-12-18T19:57:26.688Z,99.90
2018-12-18T19:59:56.053Z,99.90
2018-12-18T20:02:25.451Z,99.90
2018-12-18T20:04:54.991Z,99.90
2018-12-18T20:07:24.416Z,99.90
2018-12-18T20:09:53.907Z,99.90
2018-12-18T20:12:29.929Z,99.90
2018-12-18T20:15:06.851Z,99.90
2018-12-18T20:17:41.319Z,99.90
2018-12-18T20:20:10.991Z,99.90
2018-12-18T20:22:41.741Z,99.90
2018-12-18T20:25:10.987Z,99.90
2018-12-18T20:27:40.496Z,99.90
2018-12-18T20:30:10.268Z,99.90
2018-12-18T20:32:39.648Z,99.90
2018-12-18T20:35:09.044Z,99.90
2018-12-18T20:37:38.776Z,99.90
2018-12-18T20:40:10.959Z,99.90
2018-12-18T20:42:40.408Z,99.90
2018-12-18T20:45:10.487Z,99.90
2018-12-18T20:47:40.558Z,99.90
2018-12-18T20:50:17.793Z,99.90
2018-12-18T20:52:50.110Z,99.90
2018-12-18T20:55:20.344Z,99.90
2018-12-18T20:57:50.186Z,99.90
2018-12-18T21:00:20.096Z,99.90
2018-12-18T21:02:49.344Z,99.90
2018-12-18T21:05:18.934Z,99.90
2018-12-18T21:07:48.471Z,99.90
2018-12-18T21:10:17.983Z,99.90
2018-12-18T21:12:47.591Z,99.90
2018-12-18T21:15:17.271Z,99.90
2018-12-18T21:17:46.775Z,99.90
2018-12-18T21:20:16.309Z,99.90
2018-12-18T21:22:45.802Z,99.90
2018-12-18T21:25:18.916Z,99.90
2018-12-18T21:27:47.306Z,99.90
2018-12-18T21:30:16.779Z,99.90
2018-12-18T21:32:46.269Z,99.90
2018-12-18T21:35:15.746Z,99.90
2018-12-18T21:37:46.251Z,99.90
2018-12-18T21:40:19.814Z,99.90
2018-12-18T21:42:49.307Z,99.90
2018-12-18T21:45:19.455Z,99.90
2018-12-18T21:47:53.461Z,99.90
2018-12-18T21:50:23.133Z,99.90
2018-12-18T21:52:52.739Z,99.90
2018-12-18T21:55:23.309Z,99.90
2018-12-18T21:57:52.832Z,99.90
2018-12-18T22:00:22.306Z,99.90
2018-12-18T22:02:51.786Z,99.90
2018-12-18T22:05:24.911Z,99.90
2018-12-18T22:07:54.411Z,99.90
2018-12-18T22:10:23.903Z,99.90
2018-12-18T22:12:53.379Z,99.90
2018-12-18T22:15:22.885Z,99.90
2018-12-18T22:17:52.367Z,99.90
2018-12-18T22:20:21.930Z,99.90
2018-12-18T22:22:52.152Z,99.90
2018-12-18T22:25:22.515Z,99.90
2018-12-18T22:27:52.094Z,99.90
2018-12-18T22:30:21.683Z,99.90
2018-12-18T22:32:50.882Z,99.90
2018-12-18T22:35:20.077Z,99.90
2018-12-18T22:37:49.262Z,99.90
2018-12-18T22:40:18.430Z,99.90
2018-12-18T22:42:47.641Z,99.90
2018-12-18T22:45:18.140Z,99.90
2018-12-18T22:47:48.117Z,99.90
2018-12-18T22:50:17.286Z,99.90
2018-12-18T22:52:46.486Z,99.90
2018-12-18T22:55:15.779Z,99.90
2018-12-18T22:57:44.986Z,99.90
2018-12-18T23:00:19.630Z,99.90
2018-12-18T23:02:48.832Z,99.90
2018-12-18T23:05:18.006Z,99.90
2018-12-18T23:07:47.207Z,99.90
2018-12-18T23:10:16.394Z,99.90
2018-12-18T23:12:45.606Z,99.90
2018-12-18T23:15:18.822Z,99.90
2018-12-18T23:17:48.032Z,99.90
2018-12-18T23:20:17.229Z,99.90
2018-12-18T23:22:52.970Z,99.90
2018-12-18T23:25:22.146Z,99.90
2018-12-18T23:27:51.366Z,99.90
2018-12-18T23:30:20.540Z,99.90
2018-12-18T23:32:53.650Z,99.90
2018-12-18T23:35:22.910Z,99.90
2018-12-18T23:37:52.988Z,99.90
2018-12-18T23:40:22.212Z,99.90
2018-12-18T23:42:53.419Z,99.90
2018-12-18T23:45:23.382Z,99.90
2018-12-18T23:47:52.590Z,99.90
2018-12-18T23:50:21.858Z,99.90
2018-12-18T23:52:51.035Z,99.90
2018-12-18T23:55:20.229Z,99.90
2018-12-18T23:57:49.391Z,99.90
